METAR Data
IDs: Format: Raw Decoded Include TAF

Data at: 0318 UTC 19 Oct 2021

KLLQ 190253Z AUTO 06003KT 10SM CLR 11/09 A3013 RMK AO2 SLP201 T01060089 51007 $
KLLQ 190153Z AUTO 00000KT 10SM CLR 12/09 A3012 RMK AO2 SLP200 T01170089 $
KLLQ 190053Z AUTO 00000KT 10SM CLR 13/09 A3012 RMK AO2 SLP198 T01280094 $
KLLQ 182353Z AUTO 00000KT 10SM CLR 15/09 A3011 RMK AO2 SLP195 T01500094 10228 20150 56010 $
KLLQ 182253Z AUTO 14003KT 10SM CLR 21/08 A3011 RMK AO2 SLP196 T02060078 $
KLLQ 182153Z AUTO VRB03KT 10SM CLR 22/06 A3012 RMK AO2 SLP200 T02220061 $
KLLQ 182053Z AUTO 15004KT 10SM CLR 22/06 A3014 RMK AO2 SLP204 T02170061 56023 $
KLLQ 181953Z AUTO 19004KT 10SM CLR 22/07 A3015 RMK AO2 SLP208 T02220072 $
KLLQ 181853Z AUTO VRB03KT 10SM CLR 21/06 A3017 RMK AO2 SLP216 T02110061 $
KLLQ 181753Z AUTO 00000KT 10SM CLR 21/06 A3021 RMK AO2 SLP227 T02060061 10211 20072 58016
KLLQ 181653Z AUTO 13005KT 10SM CLR 20/06 A3023 RMK AO2 SLP234 T02000056 $
KLLQ 181553Z AUTO VRB04KT 10SM CLR 18/07 A3025 RMK AO2 SLP241 T01830072
KLLQ 181453Z AUTO 14004KT 10SM CLR 16/07 A3025 RMK AO2 SLP243 T01560072 53014 $
KLLQ 181353Z AUTO 00000KT 10SM CLR 12/09 A3024 RMK AO2 SLP240 T01170089
KLLQ 181253Z AUTO 00000KT 10SM CLR 08/07 A3022 RMK AO2 SLP233 T00830067
KLLQ 181153Z AUTO 00000KT 10SM CLR 07/06 A3021 RMK AO2 SLP230 T00720061 10083 20072 53007
KLLQ 181053Z AUTO 00000KT 10SM CLR 07/06 A3020 RMK AO2 SLP227 T00720061
KLLQ 180953Z AUTO 00000KT 10SM CLR 08/06 A3019 RMK AO2 SLP222 T00780061
KLLQ 180853Z AUTO 00000KT 10SM CLR 08/06 A3019 RMK AO2 SLP222 T00780061 56004
KLLQ 180753Z AUTO 00000KT 10SM CLR 07/06 A3019 RMK AO2 SLP223 T00720061
KLLQ 180653Z AUTO 00000KT 10SM CLR 08/07 A3020 RMK AO2 SLP224 T00830067
KLLQ 180553Z AUTO 00000KT 10SM CLR 08/07 A3020 RMK AO2 SLP227 T00830067 10144 20083 402280061 58010
KLLQ 180453Z AUTO 00000KT 10SM CLR 09/07 A3021 RMK AO2 SLP230 T00890072
KLLQ 180353Z AUTO 00000KT 10SM CLR 09/08 A3023 RMK AO2 SLP236 T00940078
KLLQ 180253Z AUTO 00000KT 10SM CLR 11/08 A3023 RMK AO2 SLP237 T01060083 53006
KLLQ 180153Z AUTO 00000KT 10SM CLR 11/08 A3022 RMK AO2 SLP234 T01110083
KLLQ 180053Z AUTO 00000KT 10SM CLR 13/09 A3021 RMK AO2 SLP231 T01280089
KLLQ 172353Z AUTO 00000KT 10SM CLR 14/08 A3021 RMK AO2 SLP231 T01440083 10228 20144 55004
KLLQ 172253Z AUTO 00000KT 10SM CLR 21/06 A3021 RMK AO2 SLP230 T02060056
KLLQ 172153Z AUTO 06004KT 10SM CLR 22/04 A3022 RMK AO2 SLP231 T02170039
KLLQ 172053Z AUTO VRB04KT 10SM CLR 22/03 A3023 RMK AO2 SLP234 T02220028 56025
KLLQ 171953Z AUTO VRB03KT 10SM CLR 22/04 A3025 RMK AO2 SLP240 T02220044
KLLQ 171853Z AUTO 08006KT 10SM CLR 22/03 A3027 RMK AO2 SLP248 T02170033
KLLQ 171753Z AUTO 00000KT 10SM CLR 21/03 A3030 RMK AO2 SLP259 T02060028 10211 20061 58013
KLLQ 171653Z AUTO 10SM CLR 19/04 A3033 RMK AO2 SLP269 T01940039
KLLQ 171553Z AUTO 07003KT 10SM CLR 18/04 A3034 RMK AO2 SLP271 T01830044